N809CT KJAX-KSGJ
Flight info
| Callsign | N809CT |
|---|---|
| Flight time | 0h 24m |
| Altitude | 3000 |
| Route | VFR FF |
| Aircraft | C206/L-VGD/C |
Departure
| Time | 2026-05-04 19:09 |
|---|---|
| Airport | Jacksonville International Airport (KJAX) |
Arrival
| Time | 2026-05-04 19:33 |
|---|---|
| Airport | Northeast Florida Regional Airport (KSGJ) |
| Time | Latitude | Longitude | Altitude | Speed | Heading |
|---|---|---|---|---|---|
| 2026-05-04 19:00 | 30.49761 | -81.68120 | 30 ft | 0 kts | 71° |
| 2026-05-04 19:02 | 30.49777 | -81.68108 | 30 ft | 8 kts | 17° |
| 2026-05-04 19:03 | 30.49812 | -81.68069 | 31 ft | 6 kts | 40° |
| 2026-05-04 19:03 | 30.49837 | -81.68045 | 31 ft | 4 kts | 39° |
| 2026-05-04 19:03 | 30.49855 | -81.68028 | 32 ft | 4 kts | 47° |
| 2026-05-04 19:03 | 30.49854 | -81.67975 | 31 ft | 11 kts | 102° |
| 2026-05-04 19:04 | 30.49899 | -81.67922 | 31 ft | 14 kts | 340° |
| 2026-05-04 19:04 | 30.49991 | -81.67959 | 32 ft | 14 kts | 342° |
| 2026-05-04 19:04 | 30.50048 | -81.68026 | 33 ft | 13 kts | 261° |
| 2026-05-04 19:04 | 30.50022 | -81.68118 | 33 ft | 11 kts | 252° |
| 2026-05-04 19:05 | 30.49994 | -81.68209 | 33 ft | 14 kts | 249° |
| 2026-05-04 19:05 | 30.49953 | -81.68329 | 31 ft | 18 kts | 246° |
| 2026-05-04 19:05 | 30.49910 | -81.68475 | 31 ft | 20 kts | 255° |
| 2026-05-04 19:05 | 30.49863 | -81.68635 | 32 ft | 22 kts | 245° |
| 2026-05-04 19:06 | 30.49808 | -81.68810 | 34 ft | 24 kts | 250° |
| 2026-05-04 19:06 | 30.49750 | -81.68991 | 35 ft | 25 kts | 251° |
| 2026-05-04 19:06 | 30.49691 | -81.69184 | 36 ft | 26 kts | 250° |
| 2026-05-04 19:06 | 30.49631 | -81.69381 | 36 ft | 27 kts | 245° |
| 2026-05-04 19:07 | 30.49570 | -81.69582 | 34 ft | 26 kts | 251° |
| 2026-05-04 19:07 | 30.49513 | -81.69783 | 29 ft | 24 kts | 249° |
| 2026-05-04 19:07 | 30.49485 | -81.69878 | 28 ft | 13 kts | 270° |
| 2026-05-04 19:07 | 30.49519 | -81.69942 | 28 ft | 0 kts | 345° |
| 2026-05-04 19:08 | 30.49521 | -81.69942 | 28 ft | 2 kts | 345° |
| 2026-05-04 19:08 | 30.49585 | -81.69968 | 29 ft | 15 kts | 340° |
| 2026-05-04 19:08 | 30.49662 | -81.69841 | 31 ft | 43 kts | 73° |
| 2026-05-04 19:08 | 30.49849 | -81.69305 | 44 ft | 96 kts | 69° |
| 2026-05-04 19:09 | 30.50184 | -81.68511 | 163 ft | 121 kts | 71° |
| 2026-05-04 19:09 | 30.50477 | -81.67578 | 403 ft | 126 kts | 76° |
| 2026-05-04 19:09 | 30.50702 | -81.66614 | 691 ft | 121 kts | 78° |
| 2026-05-04 19:09 | 30.50856 | -81.65676 | 1026 ft | 116 kts | 87° |
| 2026-05-04 19:10 | 30.50874 | -81.64741 | 1301 ft | 119 kts | 92° |
| 2026-05-04 19:10 | 30.50785 | -81.63788 | 1543 ft | 121 kts | 104° |
| 2026-05-04 19:10 | 30.50420 | -81.62895 | 1751 ft | 125 kts | 127° |
| 2026-05-04 19:10 | 30.49724 | -81.62310 | 1705 ft | 124 kts | 154° |
| 2026-05-04 19:11 | 30.48893 | -81.62146 | 1846 ft | 122 kts | 167° |
| 2026-05-04 19:11 | 30.48091 | -81.61876 | 1868 ft | 119 kts | 154° |
| 2026-05-04 19:11 | 30.47299 | -81.61518 | 1810 ft | 120 kts | 153° |
| 2026-05-04 19:11 | 30.46514 | -81.61196 | 1792 ft | 120 kts | 158° |
| 2026-05-04 19:12 | 30.45698 | -81.60875 | 1669 ft | 127 kts | 157° |
| 2026-05-04 19:12 | 30.44084 | -81.60279 | 1709 ft | 113 kts | 154° |
| 2026-05-04 19:12 | 30.43354 | -81.59981 | 1831 ft | 113 kts | 155° |
| 2026-05-04 19:13 | 30.42606 | -81.59694 | 1971 ft | 115 kts | 155° |
| 2026-05-04 19:13 | 30.41844 | -81.59392 | 2097 ft | 116 kts | 155° |
| 2026-05-04 19:13 | 30.41096 | -81.59084 | 2192 ft | 111 kts | 155° |
| 2026-05-04 19:13 | 30.40381 | -81.58800 | 2361 ft | 114 kts | 158° |
| 2026-05-04 19:14 | 30.39603 | -81.58502 | 2461 ft | 122 kts | 157° |
| 2026-05-04 19:14 | 30.38830 | -81.58195 | 2540 ft | 113 kts | 155° |
| 2026-05-04 19:14 | 30.38106 | -81.57906 | 2648 ft | 108 kts | 155° |
| 2026-05-04 19:14 | 30.37417 | -81.57645 | 2772 ft | 102 kts | 156° |
| 2026-05-04 19:15 | 30.36752 | -81.57373 | 2886 ft | 103 kts | 155° |
| 2026-05-04 19:15 | 30.36039 | -81.57078 | 3006 ft | 114 kts | 156° |
| 2026-05-04 19:15 | 30.35273 | -81.56742 | 2992 ft | 118 kts | 154° |
| 2026-05-04 19:15 | 30.34539 | -81.56446 | 2982 ft | 106 kts | 156° |
| 2026-05-04 19:16 | 30.33842 | -81.56150 | 2951 ft | 109 kts | 155° |
| 2026-05-04 19:16 | 30.33117 | -81.55831 | 2868 ft | 112 kts | 155° |
| 2026-05-04 19:16 | 30.32399 | -81.55528 | 2798 ft | 111 kts | 156° |
| 2026-05-04 19:16 | 30.31667 | -81.55210 | 2740 ft | 114 kts | 154° |
| 2026-05-04 19:17 | 30.30942 | -81.54907 | 2656 ft | 107 kts | 155° |
| 2026-05-04 19:17 | 30.30229 | -81.54614 | 2567 ft | 110 kts | 155° |
| 2026-05-04 19:17 | 30.29530 | -81.54325 | 2497 ft | 110 kts | 154° |
| 2026-05-04 19:17 | 30.28799 | -81.53997 | 2432 ft | 114 kts | 151° |
| 2026-05-04 19:18 | 30.28078 | -81.53572 | 2371 ft | 117 kts | 149° |
| 2026-05-04 19:18 | 30.27344 | -81.53157 | 2286 ft | 117 kts | 149° |
| 2026-05-04 19:18 | 30.26654 | -81.52773 | 2186 ft | 105 kts | 150° |
| 2026-05-04 19:18 | 30.25978 | -81.52397 | 2131 ft | 112 kts | 149° |
| 2026-05-04 19:19 | 30.25264 | -81.52001 | 2089 ft | 113 kts | 149° |
| 2026-05-04 19:19 | 30.24564 | -81.51616 | 2085 ft | 109 kts | 150° |
| 2026-05-04 19:19 | 30.23887 | -81.51243 | 2088 ft | 109 kts | 149° |
| 2026-05-04 19:19 | 30.23195 | -81.50860 | 2081 ft | 111 kts | 149° |
| 2026-05-04 19:20 | 30.22514 | -81.50485 | 2066 ft | 108 kts | 147° |
| 2026-05-04 19:20 | 30.21863 | -81.50128 | 2072 ft | 95 kts | 149° |
| 2026-05-04 19:20 | 30.21254 | -81.49796 | 2072 ft | 97 kts | 149° |
| 2026-05-04 19:20 | 30.20667 | -81.49484 | 2089 ft | 91 kts | 145° |
| 2026-05-04 19:21 | 30.20066 | -81.49135 | 2082 ft | 99 kts | 147° |
| 2026-05-04 19:21 | 30.19427 | -81.48788 | 2147 ft | 101 kts | 145° |
| 2026-05-04 19:21 | 30.18796 | -81.48437 | 2084 ft | 98 kts | 148° |
| 2026-05-04 19:21 | 30.18211 | -81.48119 | 2070 ft | 92 kts | 147° |
| 2026-05-04 19:22 | 30.17643 | -81.47803 | 2069 ft | 90 kts | 148° |
| 2026-05-04 19:22 | 30.17087 | -81.47498 | 2077 ft | 87 kts | 149° |
| 2026-05-04 19:22 | 30.16528 | -81.47189 | 2080 ft | 88 kts | 150° |
| 2026-05-04 19:22 | 30.15985 | -81.46891 | 2069 ft | 85 kts | 148° |
| 2026-05-04 19:23 | 30.15460 | -81.46602 | 2069 ft | 82 kts | 148° |
| 2026-05-04 19:23 | 30.14940 | -81.46313 | 2076 ft | 84 kts | 148° |
| 2026-05-04 19:23 | 30.14409 | -81.46023 | 2085 ft | 86 kts | 149° |
| 2026-05-04 19:23 | 30.13802 | -81.45957 | 2073 ft | 93 kts | 187° |
| 2026-05-04 19:24 | 30.13240 | -81.46339 | 2073 ft | 96 kts | 212° |
| 2026-05-04 19:24 | 30.12711 | -81.46783 | 2068 ft | 93 kts | 207° |
| 2026-05-04 19:24 | 30.12191 | -81.47220 | 2064 ft | 92 kts | 207° |
| 2026-05-04 19:24 | 30.11662 | -81.47664 | 2012 ft | 96 kts | 209° |
| 2026-05-04 19:25 | 30.11082 | -81.48153 | 1995 ft | 104 kts | 210° |
| 2026-05-04 19:25 | 30.10496 | -81.48649 | 1993 ft | 106 kts | 210° |
| 2026-05-04 19:25 | 30.09882 | -81.49162 | 2014 ft | 114 kts | 211° |
| 2026-05-04 19:25 | 30.09255 | -81.49697 | 1999 ft | 114 kts | 210° |
| 2026-05-04 19:26 | 30.08631 | -81.50291 | 1978 ft | 115 kts | 215° |
| 2026-05-04 19:26 | 30.08067 | -81.50925 | 1936 ft | 113 kts | 212° |
| 2026-05-04 19:26 | 30.07383 | -81.51020 | 1961 ft | 96 kts | 143° |
| 2026-05-04 19:26 | 30.06938 | -81.50479 | 1899 ft | 93 kts | 128° |
| 2026-05-04 19:27 | 30.06476 | -81.49949 | 1865 ft | 94 kts | 132° |
| 2026-05-04 19:27 | 30.06006 | -81.49438 | 1861 ft | 92 kts | 127° |
| 2026-05-04 19:27 | 30.05599 | -81.48877 | 1750 ft | 91 kts | 123° |
| 2026-05-04 19:27 | 30.05223 | -81.48321 | 1738 ft | 86 kts | 125° |
| 2026-05-04 19:28 | 30.04840 | -81.47805 | 1732 ft | 84 kts | 127° |
| 2026-05-04 19:28 | 30.04439 | -81.47336 | 1652 ft | 82 kts | 131° |
| 2026-05-04 19:28 | 30.04046 | -81.46839 | 1539 ft | 86 kts | 125° |
| 2026-05-04 19:28 | 30.03702 | -81.46259 | 1604 ft | 100 kts | 120° |
| 2026-05-04 19:29 | 30.03331 | -81.45556 | 1648 ft | 105 kts | 117° |
| 2026-05-04 19:29 | 30.02984 | -81.44846 | 1659 ft | 105 kts | 121° |
| 2026-05-04 19:29 | 30.02548 | -81.44167 | 1650 ft | 105 kts | 122° |
| 2026-05-04 19:29 | 30.02108 | -81.43492 | 1656 ft | 106 kts | 121° |
| 2026-05-04 19:30 | 30.01695 | -81.42775 | 1649 ft | 109 kts | 117° |
| 2026-05-04 19:30 | 30.01291 | -81.42069 | 1622 ft | 107 kts | 127° |
| 2026-05-04 19:30 | 30.00795 | -81.41427 | 1519 ft | 106 kts | 126° |
| 2026-05-04 19:30 | 30.00343 | -81.40755 | 1412 ft | 105 kts | 122° |
| 2026-05-04 19:31 | 29.99922 | -81.40072 | 1302 ft | 104 kts | 121° |
| 2026-05-04 19:31 | 29.99507 | -81.39367 | 1223 ft | 108 kts | 123° |
| 2026-05-04 19:31 | 29.99063 | -81.38677 | 1040 ft | 106 kts | 124° |
| 2026-05-04 19:31 | 29.98637 | -81.38011 | 861 ft | 102 kts | 123° |
| 2026-05-04 19:32 | 29.98210 | -81.37396 | 777 ft | 95 kts | 123° |
| 2026-05-04 19:32 | 29.97943 | -81.36998 | 668 ft | 94 kts | 119° |
| 2026-05-04 19:32 | 29.97578 | -81.36388 | 482 ft | 93 kts | 118° |
| 2026-05-04 19:32 | 29.97086 | -81.35602 | 240 ft | 90 kts | 119° |
| 2026-05-04 19:33 | 29.96711 | -81.35045 | 54 ft | 85 kts | 128° |
| 2026-05-04 19:33 | 29.96373 | -81.34532 | 16 ft | 71 kts | 112° |
| 2026-05-04 19:33 | 29.96219 | -81.34268 | 11 ft | 39 kts | 129° |
| 2026-05-04 19:33 | 29.96163 | -81.34160 | 12 ft | 30 kts | 119° |
| 2026-05-04 19:34 | 29.96071 | -81.34012 | 10 ft | 34 kts | 125° |
| 2026-05-04 19:34 | 29.95947 | -81.33820 | 13 ft | 28 kts | 126° |
| 2026-05-04 19:34 | 29.95826 | -81.33632 | 13 ft | 30 kts | 144° |
| 2026-05-04 19:34 | 29.95761 | -81.33744 | 15 ft | 24 kts | 310° |
| 2026-05-04 19:35 | 29.95802 | -81.33818 | 14 ft | 11 kts | 299° |
| 2026-05-04 19:35 | 29.95915 | -81.33986 | 13 ft | 40 kts | 304° |
| 2026-05-04 19:35 | 29.95943 | -81.34216 | 12 ft | 30 kts | 191° |
| 2026-05-04 19:35 | 29.95940 | -81.34259 | 13 ft | 19 kts | 308° |
| 2026-05-04 19:36 | 29.95914 | -81.34402 | 14 ft | 33 kts | 235° |
| 2026-05-04 19:36 | 29.95884 | -81.34429 | 14 ft | 0 kts | 159° |